Aviation Digital Data Service (ADDS)

Output produced by METARs form (1444 UTC 12 December 2018)
found at http://www.aviationweather.gov/metar/data/
 
UTSB 121430Z 05006KT 6000 NSC 07/05 Q1020 R01/CLRD70 NOSIG
TAF UTSB 121100Z 1212/1312 VRB03KT 6000 NSC 
     TEMPO 1212/1217 10010KT 3500 BR SCT033 
     TEMPO 1217/1224 12008KT 0400 FG VV002
       
UTSK 121430Z 00000KT 4600 NSC 08/05 Q1021 R16/CLRD70
TAF UTSK 121155Z 1213/1222 06010G20KT CAVOK 
     TEMPO 1213/1216 VRB03KT 3500 BR SCT008 
     TEMPO 1216/1222 0500 FG VV002
       
UTSS 121430Z 13004KT 6000 NSC 06/M00 Q1021 R09/CLRD70 NOSIG
TAF UTSS 121057Z 1212/1312 12010G20KT 9999 NSC 
     TEMPO 1212/1214 3500 BR SCT008 
     TEMPO 1214/1223 0600 FG VV002
       
UTST 121430Z 15002KT 7000 NSC 08/05 Q1022 R88/CLRD70 NOSIG
TAF UTST 121100Z 1212/1312 VRB06KT 6000 NSC 
     TEMPO 1212/1218 3000 BR FU 
     TEMPO 1218/1304 0500 FZFG VV002
       
UTNU 121430Z 07012KT 0300 R31/0900 FG VV002 02/02 Q1020 R31/CLRD70 NOSIG RMK BASE200
TAF AMD UTNU 121424Z 1214/1312 07010G20KT 1100 BR OVC002 
     TEMPO 1214/1220 05008KT 0300 FZFG VV001
       
UTTT 121430Z 15004KT 0000 R08L/0100N FG VV000 04/04 Q1023 R08L/CLRD70 NOSIG RMK BASE060
TAF AMD UTTT 121410Z 1214/1312 06008KT 3000 BR NSC 
     TEMPO 1214/1302 VRB02KT 0200 FG VV002